createdAt,value
2018-07-01T00:00:33.781Z,95556.89
2018-07-01T00:03:06.575Z,95558.80
2018-07-01T00:05:35.953Z,95562.36
2018-07-01T00:08:06.508Z,95563.50
2018-07-01T00:10:37.299Z,95565.14
2018-07-01T00:13:07.854Z,95558.13
2018-07-01T00:15:37.591Z,95561.66
2018-07-01T00:18:07.056Z,95562.01
2018-07-01T00:20:36.426Z,95566.02
2018-07-01T00:23:06.480Z,95561.73
2018-07-01T00:25:35.814Z,95571.03
2018-07-01T00:28:05.142Z,95567.79
2018-07-01T00:30:34.437Z,95575.34
2018-07-01T00:33:03.817Z,95576.98
2018-07-01T00:35:33.158Z,95572.64
2018-07-01T00:38:02.530Z,95581.04
2018-07-01T00:40:31.884Z,95576.19
2018-07-01T00:43:01.286Z,95568.39
2018-07-01T00:45:30.893Z,95564.42
2018-07-01T00:48:00.230Z,95572.02
2018-07-01T00:50:29.580Z,95567.98
2018-07-01T00:52:58.948Z,95572.09
2018-07-01T00:55:28.077Z,95571.32
2018-07-01T00:57:57.541Z,95571.92
2018-07-01T01:00:31.884Z,95576.50
2018-07-01T01:03:02.042Z,95573.54
2018-07-01T01:05:31.869Z,95565.79
2018-07-01T01:08:01.249Z,95570.95
2018-07-01T01:10:30.635Z,95573.87
2018-07-01T01:13:00.015Z,95578.45
2018-07-01T01:15:29.726Z,95574.78
2018-07-01T01:17:59.117Z,95579.06
2018-07-01T01:20:28.462Z,95586.40
2018-07-01T01:22:58.863Z,95578.83
2018-07-01T01:25:28.630Z,95576.99
2018-07-01T01:27:58.002Z,95568.72
2018-07-01T01:30:27.424Z,95571.40
2018-07-01T01:32:56.973Z,95566.56
2018-07-01T01:35:26.404Z,95565.23
2018-07-01T01:37:55.793Z,95567.72
2018-07-01T01:40:28.498Z,95562.85
2018-07-01T01:43:02.104Z,95568.30
2018-07-01T01:46:11.264Z,95556.41
2018-07-01T01:48:45.929Z,95563.44
2018-07-01T01:51:25.833Z,95561.38
2018-07-01T01:54:02.289Z,95562.44
2018-07-01T01:56:36.457Z,95564.12
2018-07-01T01:59:11.066Z,95568.67
2018-07-01T02:01:43.450Z,95564.64
2018-07-01T02:04:21.731Z,95567.63
2018-07-01T02:06:56.213Z,95572.56
2018-07-01T02:09:29.445Z,95572.03
2018-07-01T02:12:00.304Z,95569.34
2018-07-01T02:14:33.593Z,95573.61
2018-07-01T02:17:05.201Z,95574.71
2018-07-01T02:19:34.629Z,95575.78
2018-07-01T02:22:07.111Z,95574.72
2018-07-01T02:24:39.880Z,95574.21
2018-07-01T02:27:09.266Z,95575.05
2018-07-01T02:29:38.297Z,95584.20
2018-07-01T02:32:07.794Z,95582.65
2018-07-01T02:34:37.110Z,95583.77
2018-07-01T02:37:06.553Z,95575.19
2018-07-01T02:39:35.949Z,95585.12
2018-07-01T02:42:05.716Z,95584.84
2018-07-01T02:44:35.145Z,95582.97
2018-07-01T02:47:04.518Z,95583.55
2018-07-01T02:49:33.864Z,95577.90
2018-07-01T02:52:03.245Z,95577.42
2018-07-01T02:54:32.602Z,95578.77
2018-07-01T02:57:01.970Z,95578.48
2018-07-01T02:59:31.360Z,95574.75
2018-07-01T03:02:00.757Z,95572.87
2018-07-01T03:04:30.141Z,95578.02
2018-07-01T03:06:59.541Z,95576.68
2018-07-01T03:09:28.923Z,95580.46
2018-07-01T03:11:58.370Z,95575.34
2018-07-01T03:14:28.020Z,95579.12
2018-07-01T03:16:57.426Z,95579.94
2018-07-01T03:19:26.895Z,95579.36
2018-07-01T03:21:56.332Z,95572.41
2018-07-01T03:24:25.742Z,95578.84
2018-07-01T03:26:55.119Z,95572.66
2018-07-01T03:29:24.514Z,95575.92
2018-07-01T03:31:53.866Z,95576.73
2018-07-01T03:34:23.260Z,95580.48
2018-07-01T03:36:52.576Z,95582.39
2018-07-01T03:39:21.911Z,95586.14
2018-07-01T03:41:51.248Z,95589.11
2018-07-01T03:44:20.574Z,95589.92
2018-07-01T03:46:49.903Z,95591.55
2018-07-01T03:49:19.234Z,95596.11
2018-07-01T03:51:48.634Z,95598.80
2018-07-01T03:54:18.040Z,95589.11
2018-07-01T03:56:47.385Z,95589.68
2018-07-01T03:59:16.751Z,95590.21
2018-07-01T04:01:46.164Z,95595.83
2018-07-01T04:04:15.550Z,95594.48
2018-07-01T04:06:44.924Z,95587.77
2018-07-01T04:09:14.385Z,95595.26
2018-07-01T04:11:43.735Z,95591.52
2018-07-01T04:14:13.117Z,95585.61
2018-07-01T04:16:42.442Z,95596.08
2018-07-01T04:19:11.839Z,95600.39
2018-07-01T04:21:41.192Z,95599.58
2018-07-01T04:24:10.529Z,95604.41
2018-07-01T04:26:39.845Z,95602.54
2018-07-01T04:29:09.176Z,95602.26
2018-07-01T04:31:38.493Z,95604.95
2018-07-01T04:34:07.805Z,95603.84
2018-07-01T04:36:37.174Z,95606.00
2018-07-01T04:39:08.726Z,95615.69
2018-07-01T04:41:38.089Z,95613.01
2018-07-01T04:44:07.594Z,95617.00
2018-07-01T04:46:37.099Z,95614.31
2018-07-01T04:49:06.500Z,95621.06
2018-07-01T04:51:35.827Z,95615.11
2018-07-01T04:54:05.183Z,95612.42
2018-07-01T04:56:34.743Z,95613.77
2018-07-01T04:59:04.133Z,95615.06
2018-07-01T05:01:33.533Z,95610.49
2018-07-01T05:04:02.951Z,95612.59
2018-07-01T05:06:32.277Z,95611.51
2018-07-01T05:09:02.717Z,95618.72
2018-07-01T05:11:32.082Z,95624.94
2018-07-01T05:14:01.543Z,95624.95
2018-07-01T05:16:30.925Z,95626.28
2018-07-01T05:19:00.286Z,95625.17
2018-07-01T05:21:29.889Z,95620.03
2018-07-01T05:23:59.278Z,95623.29
2018-07-01T05:26:28.745Z,95625.17
2018-07-01T05:28:58.462Z,95626.80
2018-07-01T05:31:27.971Z,95630.98
2018-07-01T05:33:57.925Z,95636.16
2018-07-01T05:36:27.384Z,95633.98
2018-07-01T05:38:56.775Z,95636.08
2018-07-01T05:41:26.113Z,95630.70
2018-07-01T05:43:55.632Z,95637.70
2018-07-01T05:46:24.999Z,95632.81
2018-07-01T05:48:54.337Z,95627.58
2018-07-01T05:51:23.705Z,95631.61
2018-07-01T05:53:53.030Z,95633.47
2018-07-01T05:56:22.439Z,95638.55
2018-07-01T05:58:51.792Z,95637.16
2018-07-01T06:01:21.145Z,95637.46
2018-07-01T06:03:50.519Z,95640.84
2018-07-01T06:06:19.882Z,95637.83
2018-07-01T06:08:49.285Z,95631.88
2018-07-01T06:11:18.865Z,95635.90
2018-07-01T06:13:48.198Z,95639.94
2018-07-01T06:16:18.083Z,95630.23
2018-07-01T06:18:47.449Z,95638.61
2018-07-01T06:21:16.918Z,95633.46
2018-07-01T06:23:46.305Z,95636.55
2018-07-01T06:26:15.610Z,95634.86
2018-07-01T06:28:44.920Z,95635.59
2018-07-01T06:31:14.279Z,95640.39
2018-07-01T06:33:43.626Z,95649.53
2018-07-01T06:36:12.983Z,95644.67
2018-07-01T06:38:42.436Z,95646.55
2018-07-01T06:41:11.812Z,95638.16
2018-07-01T06:43:41.135Z,95638.97
2018-07-01T06:46:10.702Z,95650.63
2018-07-01T06:48:40.065Z,95645.26
2018-07-01T06:51:09.445Z,95643.79
2018-07-01T06:53:38.969Z,95644.06
2018-07-01T06:56:08.297Z,95630.65
2018-07-01T06:58:37.625Z,95636.63
2018-07-01T07:01:07.116Z,95630.59
2018-07-01T07:03:36.521Z,95632.59
2018-07-01T07:06:05.914Z,95636.20
2018-07-01T07:08:35.465Z,95627.39
2018-07-01T07:11:04.813Z,95626.37
2018-07-01T07:13:35.046Z,95628.00
2018-07-01T07:16:04.473Z,95631.42
2018-07-01T07:18:33.847Z,95630.25
2018-07-01T07:21:03.329Z,95633.81
2018-07-01T07:23:32.776Z,95627.88
2018-07-01T07:26:02.750Z,95631.81
2018-07-01T07:28:32.212Z,95628.28
2018-07-01T07:31:01.559Z,95629.81
2018-07-01T07:33:30.954Z,95632.67
2018-07-01T07:36:02.714Z,95631.91
2018-07-01T07:38:33.968Z,95634.30
2018-07-01T07:41:04.724Z,95635.31
2018-07-01T07:43:38.373Z,95630.02
2018-07-01T07:46:07.741Z,95622.91
2018-07-01T07:48:37.393Z,95625.49
2018-07-01T07:51:06.726Z,95623.69
2018-07-01T07:53:36.095Z,95630.52
2018-07-01T07:56:05.484Z,95630.08
2018-07-01T07:58:34.845Z,95634.06
2018-07-01T08:01:04.226Z,95633.56
2018-07-01T08:03:33.598Z,95631.91
2018-07-01T08:06:02.937Z,95635.27
2018-07-01T08:08:32.342Z,95632.78
2018-07-01T08:11:01.788Z,95634.91
2018-07-01T08:13:31.201Z,95627.99
2018-07-01T08:16:01.589Z,95623.21
2018-07-01T08:18:30.995Z,95628.99
2018-07-01T08:21:00.422Z,95624.89
2018-07-01T08:23:29.964Z,95619.69
2018-07-01T08:25:59.603Z,95626.87
2018-07-01T08:28:29.062Z,95614.48
2018-07-01T08:30:58.471Z,95618.09
2018-07-01T08:33:27.876Z,95619.34
2018-07-01T08:35:57.364Z,95624.19
2018-07-01T08:38:26.885Z,95630.66
2018-07-01T08:41:03.380Z,95622.95
2018-07-01T08:43:33.634Z,95628.24
2018-07-01T08:46:03.061Z,95628.27
2018-07-01T08:48:32.430Z,95632.66
2018-07-01T08:51:01.830Z,95648.00
2018-07-01T08:53:31.199Z,95635.35
2018-07-01T08:56:00.688Z,95637.56
2018-07-01T08:58:30.145Z,95637.95
2018-07-01T09:00:59.644Z,95644.23
2018-07-01T09:03:29.181Z,95640.61
2018-07-01T09:05:58.579Z,95648.20
2018-07-01T09:08:28.687Z,95644.38
2018-07-01T09:10:58.096Z,95649.13
2018-07-01T09:13:27.496Z,95646.55
2018-07-01T09:15:57.059Z,95645.58
2018-07-01T09:18:26.429Z,95644.70
2018-07-01T09:20:55.888Z,95649.84
2018-07-01T09:23:25.634Z,95655.14
2018-07-01T09:25:55.223Z,95652.03
2018-07-01T09:28:24.791Z,95663.05
2018-07-01T09:30:54.180Z,95665.35
2018-07-01T09:33:23.518Z,95651.91
2018-07-01T09:35:52.897Z,95642.89
2018-07-01T09:38:22.371Z,95638.88
2018-07-01T09:40:51.695Z,95647.25
2018-07-01T09:43:21.115Z,95651.52
2018-07-01T09:45:50.390Z,95647.73
2018-07-01T09:48:19.787Z,95653.17
2018-07-01T09:50:49.114Z,95650.92
2018-07-01T09:53:18.502Z,95651.56
2018-07-01T09:55:47.861Z,95645.83
2018-07-01T09:58:17.217Z,95648.36
2018-07-01T10:00:46.583Z,95650.20
2018-07-01T10:03:15.976Z,95649.66
2018-07-01T10:05:45.385Z,95645.72
2018-07-01T10:08:14.804Z,95648.91
2018-07-01T10:10:44.124Z,95643.39
2018-07-01T10:13:13.541Z,95642.25
2018-07-01T10:15:43.030Z,95639.75
2018-07-01T10:18:12.541Z,95642.94
2018-07-01T10:20:41.924Z,95638.08
2018-07-01T10:23:11.301Z,95645.47
2018-07-01T10:25:40.690Z,95644.10
2018-07-01T10:28:10.105Z,95646.88
2018-07-01T10:30:39.511Z,95642.73
2018-07-01T10:33:08.899Z,95658.81
2018-07-01T10:35:38.242Z,95642.57
2018-07-01T10:38:07.675Z,95636.23
2018-07-01T10:40:37.047Z,95632.47
2018-07-01T10:43:07.528Z,95635.30
2018-07-01T10:45:36.903Z,95631.11
2018-07-01T10:48:06.332Z,95638.30
2018-07-01T10:50:35.743Z,95635.50
2018-07-01T10:53:05.318Z,95637.36
2018-07-01T10:55:34.664Z,95634.30
2018-07-01T10:58:04.049Z,95626.44
2018-07-01T11:00:33.708Z,95633.24
2018-07-01T11:03:03.042Z,95625.32
2018-07-01T11:05:32.727Z,95632.19
2018-07-01T11:08:02.092Z,95628.28
2018-07-01T11:10:31.537Z,95634.09
2018-07-01T11:13:00.997Z,95626.59
2018-07-01T11:15:30.382Z,95612.50
2018-07-01T11:17:59.826Z,95621.41
2018-07-01T11:20:29.409Z,95620.27
2018-07-01T11:22:58.959Z,95620.44
2018-07-01T11:25:28.393Z,95617.94
2018-07-01T11:27:57.882Z,95623.45
2018-07-01T11:30:27.319Z,95625.52
2018-07-01T11:32:56.793Z,95618.05
2018-07-01T11:35:26.228Z,95621.98
2018-07-01T11:37:55.698Z,95616.27
2018-07-01T11:40:25.068Z,95620.67
2018-07-01T11:42:54.424Z,95609.34
2018-07-01T11:45:23.773Z,95613.38
2018-07-01T11:47:53.137Z,95623.12
2018-07-01T11:50:22.512Z,95624.77
2018-07-01T11:52:52.596Z,95620.48
2018-07-01T11:55:21.951Z,95624.80
2018-07-01T11:57:51.281Z,95617.30
2018-07-01T12:00:20.710Z,95608.56
2018-07-01T12:02:50.321Z,95607.47
2018-07-01T12:05:19.848Z,95609.45
2018-07-01T12:07:49.195Z,95603.72
2018-07-01T12:10:18.597Z,95611.80
2018-07-01T12:12:47.932Z,95611.55
2018-07-01T12:15:17.663Z,95612.81
2018-07-01T12:17:48.081Z,95601.55
2018-07-01T12:20:17.819Z,95609.33
2018-07-01T12:22:48.540Z,95606.36
2018-07-01T12:25:18.492Z,95601.38
2018-07-01T12:27:47.975Z,95605.82
2018-07-01T12:30:17.469Z,95609.20
2018-07-01T12:32:46.930Z,95599.34
2018-07-01T12:35:16.312Z,95600.91
2018-07-01T12:37:45.733Z,95591.01
2018-07-01T12:40:15.205Z,95592.72
2018-07-01T12:42:44.753Z,95599.78
2018-07-01T12:45:14.147Z,95601.63
2018-07-01T12:47:43.664Z,95600.70
2018-07-01T12:50:13.053Z,95595.70
2018-07-01T12:52:42.530Z,95597.53
2018-07-01T12:55:12.115Z,95598.00
2018-07-01T12:57:41.496Z,95594.48
2018-07-01T13:00:10.971Z,95588.58
2018-07-01T13:02:40.341Z,95587.03
2018-07-01T13:05:09.821Z,95583.92
2018-07-01T13:07:39.200Z,95593.05
2018-07-01T13:10:08.922Z,95587.02
2018-07-01T13:12:38.875Z,95581.84
2018-07-01T13:15:08.310Z,95576.66
2018-07-01T13:17:37.672Z,95577.20
2018-07-01T13:20:07.402Z,95575.72
2018-07-01T13:22:36.799Z,95572.56
2018-07-01T13:25:06.337Z,95574.73
2018-07-01T13:27:35.721Z,95576.20
2018-07-01T13:30:05.610Z,95565.52
2018-07-01T13:32:35.152Z,95563.16
2018-07-01T13:35:04.598Z,95564.88
2018-07-01T13:37:34.089Z,95568.27
2018-07-01T13:40:03.449Z,95559.05
2018-07-01T13:42:32.827Z,95559.06
2018-07-01T13:45:02.189Z,95564.98
2018-07-01T13:47:31.533Z,95557.47
2018-07-01T13:50:00.885Z,95557.61
2018-07-01T13:52:30.275Z,95544.97
2018-07-01T13:55:00.002Z,95555.79
2018-07-01T13:57:29.399Z,95563.42
2018-07-01T13:59:59.426Z,95558.05
2018-07-01T14:02:28.842Z,95552.50
2018-07-01T14:04:58.229Z,95556.00
2018-07-01T14:07:27.738Z,95555.98
2018-07-01T14:09:57.159Z,95555.27
2018-07-01T14:12:26.584Z,95552.33
2018-07-01T14:14:55.949Z,95547.97
2018-07-01T14:17:25.431Z,95551.86
2018-07-01T14:19:54.890Z,95552.06
2018-07-01T14:22:24.225Z,95554.09
2018-07-01T14:24:53.827Z,95559.02
2018-07-01T14:27:23.226Z,95553.42
2018-07-01T14:29:52.580Z,95551.00
2018-07-01T14:32:21.930Z,95549.77
2018-07-01T14:34:51.317Z,95554.22
2018-07-01T14:37:20.732Z,95544.19
2018-07-01T14:39:50.172Z,95540.08
2018-07-01T14:42:19.574Z,95538.95
2018-07-01T14:44:49.206Z,95548.24
2018-07-01T14:47:18.609Z,95542.11
2018-07-01T14:49:47.961Z,95542.09
2018-07-01T14:52:17.316Z,95536.15
2018-07-01T14:54:46.715Z,95536.49
2018-07-01T14:57:16.132Z,95534.59
2018-07-01T14:59:45.523Z,95535.52
2018-07-01T15:02:14.939Z,95538.02
2018-07-01T15:04:44.370Z,95540.19
2018-07-01T15:07:14.024Z,95537.06
2018-07-01T15:09:43.432Z,95544.09
2018-07-01T15:12:12.869Z,95537.84
2018-07-01T15:14:42.293Z,95538.80
2018-07-01T15:17:11.683Z,95544.56
2018-07-01T15:19:41.029Z,95539.82
2018-07-01T15:22:10.500Z,95538.23
2018-07-01T15:24:39.805Z,95537.92
2018-07-01T15:27:09.311Z,95544.69
2018-07-01T15:29:38.887Z,95545.38
2018-07-01T15:32:08.535Z,95540.61
2018-07-01T15:34:39.025Z,95537.97
2018-07-01T15:37:09.034Z,95544.91
2018-07-01T15:39:38.602Z,95540.48
2018-07-01T15:42:08.050Z,95535.54
2018-07-01T15:44:37.515Z,95541.95
2018-07-01T15:47:07.158Z,95533.71
2018-07-01T15:49:36.533Z,95539.02
2018-07-01T15:52:06.057Z,95536.88
2018-07-01T15:54:35.988Z,95531.35
2018-07-01T15:57:05.641Z,95535.98
2018-07-01T15:59:35.047Z,95533.48
2018-07-01T16:02:04.428Z,95534.35
2018-07-01T16:04:33.828Z,95533.71
2018-07-01T16:07:03.198Z,95527.85
2018-07-01T16:09:32.567Z,95528.31
2018-07-01T16:12:01.929Z,95538.80
2018-07-01T16:14:31.277Z,95529.21
2018-07-01T16:17:00.734Z,95537.16
2018-07-01T16:19:30.113Z,95531.80
2018-07-01T16:21:59.615Z,95525.72
2018-07-01T16:24:29.118Z,95524.50
2018-07-01T16:27:03.695Z,95526.90
2018-07-01T16:29:33.076Z,95519.64
2018-07-01T16:32:02.391Z,95526.34
2018-07-01T16:34:31.761Z,95528.81
2018-07-01T16:37:01.194Z,95530.35
2018-07-01T16:39:30.571Z,95531.16
2018-07-01T16:42:00.000Z,95531.62
2018-07-01T16:44:29.363Z,95534.83
2018-07-01T16:46:59.190Z,95533.55
2018-07-01T16:49:28.639Z,95539.53
2018-07-01T16:51:58.021Z,95540.02
2018-07-01T16:54:27.396Z,95536.11
2018-07-01T16:56:56.801Z,95537.63
2018-07-01T16:59:27.126Z,95538.03
2018-07-01T17:01:56.658Z,95536.59
2018-07-01T17:04:26.061Z,95535.45
2018-07-01T17:06:55.526Z,95535.53
2018-07-01T17:09:25.025Z,95540.66
2018-07-01T17:11:54.541Z,95543.92
2018-07-01T17:14:23.991Z,95547.34
2018-07-01T17:16:53.496Z,95543.13
2018-07-01T17:19:23.500Z,95547.98
2018-07-01T17:21:52.936Z,95539.98
2018-07-01T17:24:22.439Z,95549.56
2018-07-01T17:26:53.272Z,95543.83
2018-07-01T17:29:22.702Z,95545.28
2018-07-01T17:31:57.437Z,95550.30
2018-07-01T17:34:27.010Z,95548.39
2018-07-01T17:36:56.437Z,95546.07
2018-07-01T17:39:25.862Z,95544.06
2018-07-01T17:41:58.740Z,95546.47
2018-07-01T17:44:28.312Z,95547.89
2018-07-01T17:46:57.898Z,95548.69
2018-07-01T17:49:27.569Z,95542.14
2018-07-01T17:51:57.028Z,95540.23
2018-07-01T17:54:26.435Z,95545.98
2018-07-01T17:56:55.897Z,95537.84
2018-07-01T17:59:25.306Z,95538.78
2018-07-01T18:01:54.778Z,95544.77
2018-07-01T18:04:24.149Z,95543.80
2018-07-01T18:06:53.531Z,95546.64
2018-07-01T18:09:23.012Z,95551.17
2018-07-01T18:11:52.486Z,95551.30
2018-07-01T18:14:21.852Z,95555.40
2018-07-01T18:16:51.251Z,95555.85
2018-07-01T18:19:20.722Z,95549.00
2018-07-01T18:22:09.757Z,95553.69
2018-07-01T18:24:48.923Z,95548.91
2018-07-01T18:26:49.923Z,95546.39
2018-07-01T18:29:20.353Z,95550.58
2018-07-01T18:31:50.347Z,95546.45
2018-07-01T18:34:19.717Z,95558.94
2018-07-01T18:36:49.187Z,95555.19
2018-07-01T18:39:18.622Z,95556.12
2018-07-01T18:41:47.947Z,95556.02
2018-07-01T18:44:17.293Z,95563.02
2018-07-01T18:46:46.840Z,95559.10
2018-07-01T18:49:16.206Z,95556.94
2018-07-01T18:51:45.622Z,95556.22
2018-07-01T18:54:14.751Z,95552.59
2018-07-01T18:56:44.124Z,95560.88
2018-07-01T18:59:13.457Z,95559.58
2018-07-01T19:01:42.886Z,95561.25
2018-07-01T19:04:12.331Z,95556.06
2018-07-01T19:06:43.208Z,95557.13
2018-07-01T19:09:12.609Z,95562.77
2018-07-01T19:11:42.016Z,95558.91
2018-07-01T19:14:11.521Z,95564.13
2018-07-01T19:16:41.245Z,95569.00
2018-07-01T19:19:10.616Z,95568.02
2018-07-01T19:21:39.990Z,95563.28
2018-07-01T19:24:09.382Z,95569.25
2018-07-01T19:26:38.858Z,95566.70
2018-07-01T19:29:08.214Z,95567.56
2018-07-01T19:31:38.122Z,95571.14
2018-07-01T19:34:07.747Z,95574.77
2018-07-01T19:36:37.294Z,95580.86
2018-07-01T19:39:10.383Z,95579.61
2018-07-01T19:41:39.892Z,95568.86
2018-07-01T19:44:09.346Z,95583.48
2018-07-01T19:46:38.764Z,95577.89
2018-07-01T19:49:08.239Z,95581.25
2018-07-01T19:51:37.668Z,95579.55
2018-07-01T19:54:07.206Z,95581.09
2018-07-01T19:56:36.890Z,95585.19
2018-07-01T19:59:06.570Z,95580.91
2018-07-01T20:01:36.410Z,95583.89
2018-07-01T20:04:06.007Z,95584.91
2018-07-01T20:06:35.790Z,95585.81
2018-07-01T20:09:09.174Z,95581.75
2018-07-01T20:11:38.693Z,95580.41
2018-07-01T20:14:08.350Z,95583.81
2018-07-01T20:16:37.737Z,95591.06
2018-07-01T20:19:07.137Z,95587.31
2018-07-01T20:21:36.868Z,95589.06
2018-07-01T20:24:08.431Z,95585.05
2018-07-01T20:26:37.895Z,95587.95
2018-07-01T20:29:07.829Z,95587.16
2018-07-01T20:31:38.669Z,95591.30
2018-07-01T20:34:08.507Z,95585.48
2018-07-01T20:36:39.351Z,95584.39
2018-07-01T20:39:13.197Z,95580.37
2018-07-01T20:41:43.342Z,95580.23
2018-07-01T20:44:13.109Z,95579.70
2018-07-01T20:46:42.987Z,95575.92
2018-07-01T20:49:12.670Z,95586.23
2018-07-01T20:51:42.876Z,95577.42
2018-07-01T20:54:12.486Z,95582.78
2018-07-01T20:56:41.975Z,95579.63
2018-07-01T20:59:11.394Z,95582.78
2018-07-01T21:01:40.731Z,95589.00
2018-07-01T21:04:10.070Z,95581.20
2018-07-01T21:06:39.426Z,95583.13
2018-07-01T21:09:10.537Z,95574.25
2018-07-01T21:11:39.964Z,95578.69
2018-07-01T21:14:09.393Z,95577.22
2018-07-01T21:16:39.388Z,95581.66
2018-07-01T21:19:08.764Z,95580.08
2018-07-01T21:21:38.136Z,95581.23
2018-07-01T21:24:07.529Z,95575.74
2018-07-01T21:26:36.946Z,95575.00
2018-07-01T21:29:06.283Z,95573.19
2018-07-01T21:31:35.655Z,95574.66
2018-07-01T21:34:05.039Z,95570.18
2018-07-01T21:36:34.405Z,95573.22
2018-07-01T21:39:04.729Z,95563.94
2018-07-01T21:41:34.145Z,95564.31
2018-07-01T21:44:03.530Z,95568.64
2018-07-01T21:46:32.970Z,95561.48
2018-07-01T21:49:02.379Z,95559.66
2018-07-01T21:51:31.773Z,95552.98
2018-07-01T21:54:01.208Z,95558.61
2018-07-01T21:56:30.575Z,95554.66
2018-07-01T21:59:00.679Z,95551.73
2018-07-01T22:01:30.058Z,95552.64
2018-07-01T22:03:59.454Z,95552.64
2018-07-01T22:06:34.092Z,95550.55
2018-07-01T22:09:03.517Z,95553.02
2018-07-01T22:11:51.438Z,95554.12
2018-07-01T22:14:42.677Z,95554.43
2018-07-01T22:17:12.757Z,95551.46
2018-07-01T22:19:42.096Z,95553.45
2018-07-01T22:22:11.486Z,95556.21
2018-07-01T22:24:41.163Z,95553.00
2018-07-01T22:27:10.586Z,95557.89
2018-07-01T22:29:39.933Z,95553.91
2018-07-01T22:32:09.506Z,95551.51
2018-07-01T22:34:39.022Z,95551.20
2018-07-01T22:37:08.401Z,95555.22
2018-07-01T22:39:37.762Z,95554.51
2018-07-01T22:42:07.347Z,95560.05
2018-07-01T22:44:36.805Z,95559.63
2018-07-01T22:47:06.277Z,95555.19
2018-07-01T22:49:35.681Z,95552.36
2018-07-01T22:52:05.081Z,95548.83
2018-07-01T22:54:34.447Z,95550.02
2018-07-01T22:57:03.817Z,95556.73
2018-07-01T22:59:33.144Z,95550.87
2018-07-01T23:03:14.953Z,95552.36
2018-07-01T23:05:44.315Z,95554.02
2018-07-01T23:08:13.664Z,95556.13
2018-07-01T23:10:43.113Z,95556.27
2018-07-01T23:13:12.477Z,95562.29
2018-07-01T23:15:41.857Z,95558.96
2018-07-01T23:18:11.203Z,95558.30
2018-07-01T23:20:40.546Z,95559.62
2018-07-01T23:23:09.901Z,95557.37
2018-07-01T23:25:39.249Z,95559.06
2018-07-01T23:28:08.580Z,95556.73
2018-07-01T23:30:37.934Z,95560.11
2018-07-01T23:33:07.281Z,95556.34
2018-07-01T23:35:36.767Z,95562.23
2018-07-01T23:38:06.248Z,95550.14
2018-07-01T23:40:35.653Z,95550.55
2018-07-01T23:43:05.006Z,95554.09
2018-07-01T23:45:34.401Z,95545.20
2018-07-01T23:48:03.739Z,95549.23
2018-07-01T23:50:33.110Z,95548.97
2018-07-01T23:53:02.569Z,95548.75
2018-07-01T23:55:31.960Z,95544.99
2018-07-01T23:58:01.330Z,95544.22
